createdAt,value
2017-09-28T00:00:36.451Z,10.75
2017-09-28T00:01:15.416Z,10.79
2017-09-28T00:02:15.388Z,10.78
2017-09-28T00:03:15.369Z,10.76
2017-09-28T00:04:15.352Z,10.76
2017-09-28T00:05:15.360Z,10.82
2017-09-28T00:06:36.313Z,10.89
2017-09-28T00:07:15.329Z,10.93
2017-09-28T00:08:15.296Z,10.92
2017-09-28T00:09:15.276Z,10.96
2017-09-28T00:10:15.257Z,10.99
2017-09-28T00:11:15.217Z,10.96
2017-09-28T00:12:36.203Z,10.97
2017-09-28T00:13:15.197Z,10.94
2017-09-28T00:14:15.186Z,10.99
2017-09-28T00:15:15.175Z,11.04
2017-09-28T00:16:15.104Z,11.12
2017-09-28T00:17:15.111Z,11.07
2017-09-28T00:18:36.121Z,11.07
2017-09-28T00:19:15.075Z,11.04
2017-09-28T00:20:15.070Z,11.04
2017-09-28T00:21:15.032Z,11.07
2017-09-28T00:22:15.008Z,11.05
2017-09-28T00:23:15.018Z,11.10
2017-09-28T00:24:35.989Z,11.05
2017-09-28T00:25:14.985Z,11.05
2017-09-28T00:26:14.950Z,11.07
2017-09-28T00:27:14.978Z,11.14
2017-09-28T00:28:14.902Z,11.02
2017-09-28T00:29:14.879Z,11.04
2017-09-28T00:30:35.886Z,11.08
2017-09-28T00:31:14.857Z,11.05
2017-09-28T00:32:14.835Z,11.02
2017-09-28T00:33:14.821Z,11.04
2017-09-28T00:34:14.772Z,11.07
2017-09-28T00:35:14.793Z,11.07
2017-09-28T00:36:35.752Z,11.07
2017-09-28T00:37:14.753Z,11.07
2017-09-28T00:38:14.722Z,11.07
2017-09-28T00:39:14.694Z,11.07
2017-09-28T00:40:14.697Z,11.05
2017-09-28T00:41:14.657Z,11.11
2017-09-28T00:42:35.703Z,11.11
2017-09-28T00:43:14.625Z,11.02
2017-09-28T00:44:14.621Z,11.15
2017-09-28T00:45:14.579Z,11.14
2017-09-28T00:46:14.556Z,11.14
2017-09-28T00:47:14.563Z,11.14
2017-09-28T00:48:35.538Z,11.15
2017-09-28T00:49:14.491Z,11.15
2017-09-28T00:50:14.496Z,11.15
2017-09-28T00:51:14.463Z,11.17
2017-09-28T00:52:14.471Z,11.15
2017-09-28T00:53:14.409Z,11.15
2017-09-28T00:54:35.407Z,11.14
2017-09-28T00:55:14.420Z,11.10
2017-09-28T00:56:14.379Z,11.08
2017-09-28T00:57:14.330Z,11.12
2017-09-28T00:58:14.345Z,11.15
2017-09-28T00:59:14.319Z,11.11
2017-09-28T01:00:35.275Z,11.12
2017-09-28T01:01:14.296Z,11.15
2017-09-28T01:02:14.241Z,11.15
2017-09-28T01:03:14.212Z,11.05
2017-09-28T01:04:14.210Z,11.10
2017-09-28T01:05:14.213Z,11.10
2017-09-28T01:06:35.186Z,11.15
2017-09-28T01:07:14.134Z,11.07
2017-09-28T01:08:14.146Z,11.11
2017-09-28T01:09:14.119Z,11.14
2017-09-28T01:10:14.148Z,11.12
2017-09-28T01:11:14.082Z,11.15
2017-09-28T01:12:35.032Z,11.17
2017-09-28T01:13:14.038Z,11.15
2017-09-28T01:14:14.004Z,11.18
2017-09-28T01:15:13.987Z,11.17
2017-09-28T01:16:13.959Z,11.14
2017-09-28T01:17:13.971Z,11.12
2017-09-28T01:18:34.960Z,11.22
2017-09-28T01:19:13.928Z,11.15
2017-09-28T01:20:13.915Z,11.12
2017-09-28T01:21:13.919Z,11.18
2017-09-28T01:22:13.844Z,11.18
2017-09-28T01:23:13.855Z,11.17
2017-09-28T01:24:34.834Z,11.17
2017-09-28T01:25:13.845Z,11.19
2017-09-28T01:26:13.834Z,11.17
2017-09-28T01:27:13.791Z,11.23
2017-09-28T01:28:13.763Z,11.17
2017-09-28T01:29:13.726Z,11.18
2017-09-28T01:30:34.748Z,11.17
2017-09-28T01:31:13.742Z,11.18
2017-09-28T01:32:13.691Z,11.30
2017-09-28T01:33:13.639Z,11.18
2017-09-28T01:34:13.657Z,11.15
2017-09-28T01:35:13.614Z,11.15
2017-09-28T01:36:34.594Z,11.17
2017-09-28T01:37:13.575Z,11.23
2017-09-28T01:38:13.593Z,11.25
2017-09-28T01:39:13.531Z,11.22
2017-09-28T01:40:13.561Z,11.18
2017-09-28T01:41:13.486Z,11.17
2017-09-28T01:42:34.516Z,11.15
2017-09-28T01:43:13.468Z,11.27
2017-09-28T01:44:13.456Z,11.17
2017-09-28T01:45:13.428Z,11.14
2017-09-28T01:46:13.395Z,11.15
2017-09-28T01:47:13.409Z,11.19
2017-09-28T01:48:34.378Z,11.15
2017-09-28T01:49:13.393Z,11.15
2017-09-28T01:50:13.376Z,11.12
2017-09-28T01:51:13.295Z,11.18
2017-09-28T01:52:13.288Z,11.17
2017-09-28T01:53:13.264Z,11.14
2017-09-28T01:54:34.276Z,11.08
2017-09-28T01:55:13.251Z,11.07
2017-09-28T01:56:13.213Z,11.08
2017-09-28T01:57:13.199Z,11.02
2017-09-28T01:58:13.172Z,11.05
2017-09-28T01:59:13.143Z,11.05
2017-09-28T02:00:34.159Z,11.07
2017-09-28T02:01:13.156Z,11.04
2017-09-28T02:02:13.109Z,11.02
2017-09-28T02:03:13.072Z,11.05
2017-09-28T02:04:13.051Z,11.02
2017-09-28T02:05:13.044Z,11.05
2017-09-28T02:06:34.017Z,11.08
2017-09-28T02:07:13.002Z,11.10
2017-09-28T02:08:12.973Z,11.08
2017-09-28T02:09:12.984Z,11.05
2017-09-28T02:10:12.948Z,11.07
2017-09-28T02:11:12.946Z,11.04
2017-09-28T02:12:33.955Z,11.14
2017-09-28T02:13:12.905Z,11.02
2017-09-28T02:14:12.885Z,11.05
2017-09-28T02:15:12.846Z,11.04
2017-09-28T02:16:12.838Z,11.00
2017-09-28T02:17:12.825Z,11.07
2017-09-28T02:18:33.823Z,11.04
2017-09-28T02:19:12.795Z,11.05
2017-09-28T02:20:12.772Z,11.08
2017-09-28T02:21:12.753Z,11.10
2017-09-28T02:22:12.731Z,11.05
2017-09-28T02:23:12.710Z,11.11
2017-09-28T02:24:33.725Z,11.15
2017-09-28T02:25:12.671Z,11.11
2017-09-28T02:26:12.656Z,11.14
2017-09-28T02:27:12.622Z,11.17
2017-09-28T02:28:12.633Z,11.14
2017-09-28T02:29:12.608Z,11.15
2017-09-28T02:30:33.541Z,11.10
2017-09-28T02:31:12.583Z,11.14
2017-09-28T02:32:12.509Z,11.17
2017-09-28T02:33:12.508Z,11.10
2017-09-28T02:34:12.852Z,11.12
2017-09-28T02:35:12.482Z,11.10
2017-09-28T02:36:33.450Z,11.11
2017-09-28T02:37:12.438Z,11.12
2017-09-28T02:38:12.431Z,11.11
2017-09-28T02:39:12.413Z,11.11
2017-09-28T02:40:12.378Z,11.08
2017-09-28T02:41:12.426Z,11.07
2017-09-28T02:42:33.381Z,11.05
2017-09-28T02:43:12.303Z,11.11
2017-09-28T02:44:12.291Z,11.11
2017-09-28T02:45:12.293Z,11.10
2017-09-28T02:46:12.288Z,11.11
2017-09-28T02:47:12.238Z,11.15
2017-09-28T02:48:33.231Z,11.12
2017-09-28T02:49:12.210Z,11.12
2017-09-28T02:50:12.211Z,11.18
2017-09-28T02:51:12.174Z,11.15
2017-09-28T02:52:12.152Z,11.23
2017-09-28T02:53:12.141Z,11.15
2017-09-28T02:54:33.137Z,11.08
2017-09-28T02:55:12.091Z,11.19
2017-09-28T02:56:12.086Z,11.07
2017-09-28T02:57:12.049Z,11.15
2017-09-28T02:58:12.057Z,11.14
2017-09-28T02:59:12.013Z,11.14
2017-09-28T03:00:32.996Z,11.12
2017-09-28T03:01:12.010Z,11.12
2017-09-28T03:02:11.964Z,11.14
2017-09-28T03:03:11.934Z,11.19
2017-09-28T03:04:11.921Z,11.18
2017-09-28T03:05:11.918Z,11.17
2017-09-28T03:06:32.914Z,11.08
2017-09-28T03:07:11.899Z,11.15
2017-09-28T03:08:11.862Z,11.18
2017-09-28T03:09:11.826Z,11.12
2017-09-28T03:10:11.804Z,11.15
2017-09-28T03:11:11.773Z,11.15
2017-09-28T03:12:32.769Z,11.14
2017-09-28T03:13:11.738Z,11.23
2017-09-28T03:14:11.787Z,11.22
2017-09-28T03:15:11.714Z,11.22
2017-09-28T03:16:11.706Z,11.17
2017-09-28T03:17:11.715Z,11.18
2017-09-28T03:18:32.637Z,11.14
2017-09-28T03:19:11.653Z,11.30
2017-09-28T03:20:11.640Z,11.18
2017-09-28T03:21:11.589Z,11.18
2017-09-28T03:22:11.596Z,11.18
2017-09-28T03:23:11.547Z,11.14
2017-09-28T03:24:32.525Z,11.18
2017-09-28T03:25:11.559Z,11.29
2017-09-28T03:26:11.509Z,11.17
2017-09-28T03:27:11.484Z,11.18
2017-09-28T03:28:11.489Z,11.22
2017-09-28T03:29:11.469Z,11.15
2017-09-28T03:30:32.424Z,11.15
2017-09-28T03:31:11.460Z,11.05
2017-09-28T03:32:11.409Z,11.08
2017-09-28T03:33:11.402Z,11.08
2017-09-28T03:34:11.337Z,11.14
2017-09-28T03:35:11.376Z,11.10
2017-09-28T03:36:32.357Z,11.04
2017-09-28T03:37:11.280Z,11.10
2017-09-28T03:38:11.285Z,11.11
2017-09-28T03:39:11.256Z,11.12
2017-09-28T03:40:11.244Z,11.12
2017-09-28T03:41:11.229Z,11.10
2017-09-28T03:42:32.194Z,11.15
2017-09-28T03:43:11.177Z,11.17
2017-09-28T03:44:11.170Z,11.04
2017-09-28T03:45:11.414Z,11.14
2017-09-28T03:46:11.157Z,11.04
2017-09-28T03:47:11.140Z,11.07
2017-09-28T03:48:32.085Z,11.05
2017-09-28T03:49:11.107Z,11.19
2017-09-28T03:50:11.082Z,11.17
2017-09-28T03:51:11.046Z,11.07
2017-09-28T03:52:11.046Z,11.15
2017-09-28T03:53:10.986Z,11.08
2017-09-28T03:54:32.004Z,11.08
2017-09-28T03:55:10.946Z,11.14
2017-09-28T03:56:10.959Z,11.05
2017-09-28T03:57:10.911Z,11.11
2017-09-28T03:58:10.900Z,11.10
2017-09-28T03:59:10.883Z,11.08
2017-09-28T04:00:31.874Z,11.08
2017-09-28T04:01:10.822Z,11.14
2017-09-28T04:02:10.828Z,11.05
2017-09-28T04:03:10.796Z,11.10
2017-09-28T04:04:10.788Z,11.07
2017-09-28T04:05:10.754Z,11.17
2017-09-28T04:06:31.753Z,11.14
2017-09-28T04:07:10.730Z,11.11
2017-09-28T04:08:10.728Z,11.10
2017-09-28T04:09:10.688Z,11.10
2017-09-28T04:10:10.673Z,11.14
2017-09-28T04:11:10.625Z,11.10
2017-09-28T04:12:31.644Z,11.12
2017-09-28T04:13:10.627Z,11.15
2017-09-28T04:14:10.583Z,11.14
2017-09-28T04:15:10.580Z,11.15
2017-09-28T04:16:10.578Z,11.11
2017-09-28T04:17:10.548Z,11.25
2017-09-28T04:18:31.548Z,11.17
2017-09-28T04:19:10.507Z,11.26
2017-09-28T04:20:10.509Z,11.25
2017-09-28T04:21:10.498Z,11.17
2017-09-28T04:22:10.407Z,11.15
2017-09-28T04:23:10.474Z,11.23
2017-09-28T04:24:31.421Z,11.12
2017-09-28T04:25:10.423Z,11.18
2017-09-28T04:26:10.498Z,11.14
2017-09-28T04:27:10.385Z,11.17
2017-09-28T04:28:10.358Z,11.22
2017-09-28T04:29:10.293Z,11.15
2017-09-28T04:30:31.302Z,11.18
2017-09-28T04:31:10.260Z,11.15
2017-09-28T04:32:10.274Z,11.19
2017-09-28T04:33:10.265Z,11.18
2017-09-28T04:34:10.237Z,11.19
2017-09-28T04:35:10.215Z,11.27
2017-09-28T04:36:31.189Z,11.15
2017-09-28T04:37:10.199Z,11.30
2017-09-28T04:38:10.142Z,11.26
2017-09-28T04:39:10.133Z,11.27
2017-09-28T04:40:10.105Z,11.23
2017-09-28T04:41:10.047Z,11.26
2017-09-28T04:42:31.051Z,11.32
2017-09-28T04:43:10.039Z,11.26
2017-09-28T04:44:10.044Z,11.25
2017-09-28T04:45:10.007Z,11.27
2017-09-28T04:46:10.026Z,11.26
2017-09-28T04:47:09.945Z,11.27
2017-09-28T04:48:30.965Z,11.33
2017-09-28T04:49:09.908Z,11.35
2017-09-28T04:50:09.918Z,11.41
2017-09-28T04:51:09.864Z,11.32
2017-09-28T04:52:09.911Z,11.37
2017-09-28T04:53:09.850Z,11.41
2017-09-28T04:54:30.824Z,11.37
2017-09-28T04:55:09.819Z,11.36
2017-09-28T04:56:09.834Z,11.36
2017-09-28T04:57:09.781Z,11.35
2017-09-28T04:58:09.733Z,11.40
2017-09-28T04:59:09.758Z,11.36
2017-09-28T05:00:30.719Z,11.33
2017-09-28T05:01:09.683Z,11.41
2017-09-28T05:02:09.663Z,11.37
2017-09-28T05:03:09.667Z,11.41
2017-09-28T05:04:09.708Z,11.29
2017-09-28T05:05:09.606Z,11.33
2017-09-28T05:06:30.581Z,11.29
2017-09-28T05:07:09.573Z,11.36
2017-09-28T05:08:09.555Z,11.32
2017-09-28T05:09:09.563Z,11.36
2017-09-28T05:10:09.545Z,11.37
2017-09-28T05:11:09.643Z,11.43
2017-09-28T05:12:30.453Z,11.41
2017-09-28T05:13:09.481Z,11.36
2017-09-28T05:14:09.441Z,11.36
2017-09-28T05:15:09.406Z,11.48
2017-09-28T05:16:09.380Z,11.47
2017-09-28T05:17:09.383Z,11.44
2017-09-28T05:18:30.353Z,11.51
2017-09-28T05:19:09.330Z,11.48
2017-09-28T05:20:09.309Z,11.55
2017-09-28T05:21:09.286Z,11.50
2017-09-28T05:22:09.284Z,11.48
2017-09-28T05:23:09.243Z,11.51
2017-09-28T05:24:30.235Z,11.54
2017-09-28T05:25:09.215Z,11.55
2017-09-28T05:26:09.204Z,11.55
2017-09-28T05:27:09.174Z,11.51
2017-09-28T05:28:09.169Z,11.54
2017-09-28T05:29:09.130Z,11.50
2017-09-28T05:30:30.144Z,11.51
2017-09-28T05:31:09.105Z,11.50
2017-09-28T05:32:09.063Z,11.59
2017-09-28T05:33:09.163Z,11.50
2017-09-28T05:34:09.054Z,11.62
2017-09-28T05:35:09.129Z,11.65
2017-09-28T05:36:30.008Z,11.50
2017-09-28T05:37:08.980Z,11.52
2017-09-28T05:38:08.955Z,11.50
2017-09-28T05:39:08.942Z,11.51
2017-09-28T05:40:08.950Z,11.51
2017-09-28T05:41:08.935Z,11.51
2017-09-28T05:42:29.895Z,11.54
2017-09-28T05:43:08.892Z,11.48
2017-09-28T05:44:08.852Z,11.65
2017-09-28T05:45:08.860Z,11.63
2017-09-28T05:46:08.876Z,11.65
2017-09-28T05:47:08.807Z,11.62
2017-09-28T05:48:29.782Z,11.50
2017-09-28T05:49:08.764Z,11.50
2017-09-28T05:50:08.787Z,11.48
2017-09-28T05:51:08.748Z,11.62
2017-09-28T05:52:08.729Z,11.57
2017-09-28T05:53:08.717Z,11.57
2017-09-28T05:54:29.702Z,11.50
2017-09-28T05:55:08.669Z,11.50
2017-09-28T05:56:08.656Z,11.50
2017-09-28T05:57:08.611Z,11.63
2017-09-28T05:58:08.710Z,11.60
2017-09-28T05:59:08.573Z,11.59
2017-09-28T06:00:29.543Z,11.63
2017-09-28T06:01:08.538Z,11.62
2017-09-28T06:02:08.529Z,11.57
2017-09-28T06:03:08.496Z,11.63
2017-09-28T06:04:08.501Z,11.60
2017-09-28T06:05:08.482Z,11.65
2017-09-28T06:06:29.469Z,11.68
2017-09-28T06:07:08.476Z,11.50
2017-09-28T06:08:08.411Z,11.62
2017-09-28T06:09:08.415Z,11.62
2017-09-28T06:10:08.425Z,11.55
2017-09-28T06:11:08.387Z,11.54
2017-09-28T06:12:29.344Z,11.54
2017-09-28T06:13:08.307Z,11.48
2017-09-28T06:14:08.295Z,11.47
2017-09-28T06:15:08.290Z,11.52
2017-09-28T06:16:08.284Z,11.50
2017-09-28T06:17:08.249Z,11.54
2017-09-28T06:18:29.252Z,11.50
2017-09-28T06:19:08.206Z,11.63
2017-09-28T06:20:08.196Z,11.60
2017-09-28T06:21:08.160Z,11.59
2017-09-28T06:22:08.177Z,11.65
2017-09-28T06:23:08.146Z,11.57
2017-09-28T06:24:29.159Z,11.63
2017-09-28T06:25:08.091Z,11.68
2017-09-28T06:26:08.092Z,11.63
2017-09-28T06:27:08.095Z,11.62
2017-09-28T06:28:08.044Z,11.68
2017-09-28T06:29:08.009Z,11.57
2017-09-28T06:30:29.025Z,11.68
2017-09-28T06:31:07.971Z,11.65
2017-09-28T06:32:07.950Z,11.62
2017-09-28T06:33:07.933Z,11.60
2017-09-28T06:34:07.927Z,11.60
2017-09-28T06:35:07.917Z,11.63
2017-09-28T06:36:28.892Z,11.62
2017-09-28T06:37:07.845Z,11.69
2017-09-28T06:38:07.865Z,11.66
2017-09-28T06:39:07.836Z,11.60
2017-09-28T06:40:07.827Z,11.68
2017-09-28T06:41:07.824Z,11.72
2017-09-28T06:42:28.805Z,11.78
2017-09-28T06:43:07.802Z,11.72
2017-09-28T06:44:07.711Z,11.75
2017-09-28T06:45:07.710Z,11.81
2017-09-28T06:46:07.722Z,11.78
2017-09-28T06:47:07.657Z,11.81
2017-09-28T06:48:28.670Z,11.78
2017-09-28T06:49:07.632Z,11.81
2017-09-28T06:50:07.629Z,11.86
2017-09-28T06:51:07.639Z,11.86
2017-09-28T06:52:07.581Z,11.88
2017-09-28T06:53:07.580Z,11.88
2017-09-28T06:54:28.548Z,11.86
2017-09-28T06:55:07.560Z,11.80
2017-09-28T06:56:07.544Z,11.88
2017-09-28T06:57:07.472Z,11.88
2017-09-28T06:58:07.453Z,11.94
2017-09-28T06:59:07.444Z,11.97
2017-09-28T07:00:28.493Z,11.95
2017-09-28T07:01:07.390Z,11.97
2017-09-28T07:02:07.391Z,11.94
2017-09-28T07:03:07.353Z,11.90
2017-09-28T07:04:07.336Z,11.97
2017-09-28T07:05:07.372Z,11.99
2017-09-28T07:06:28.347Z,12.06
2017-09-28T07:07:07.292Z,12.07
2017-09-28T07:08:07.306Z,12.02
2017-09-28T07:09:07.251Z,12.12
2017-09-28T07:10:07.255Z,12.12
2017-09-28T07:11:07.243Z,12.17
2017-09-28T07:12:28.244Z,12.12
2017-09-28T07:13:07.283Z,12.24
2017-09-28T07:14:07.174Z,12.24
2017-09-28T07:15:07.206Z,12.24
2017-09-28T07:16:07.146Z,12.27
2017-09-28T07:17:07.128Z,12.36
2017-09-28T07:18:28.101Z,12.31
2017-09-28T07:19:07.082Z,12.40
2017-09-28T07:20:07.040Z,12.29
2017-09-28T07:21:07.052Z,12.32
2017-09-28T07:22:07.044Z,12.40
2017-09-28T07:23:06.975Z,12.42
2017-09-28T07:24:27.985Z,12.46
2017-09-28T07:25:06.965Z,12.54
2017-09-28T07:26:06.973Z,12.58
2017-09-28T07:27:06.924Z,12.70
2017-09-28T07:28:06.935Z,12.72
2017-09-28T07:29:06.902Z,12.80
2017-09-28T07:30:27.897Z,12.91
2017-09-28T07:31:06.857Z,12.93
2017-09-28T07:32:06.854Z,12.85
2017-09-28T07:33:06.829Z,12.91
2017-09-28T07:34:06.808Z,12.85
2017-09-28T07:35:06.772Z,13.03
2017-09-28T07:36:27.793Z,12.90
2017-09-28T07:37:06.789Z,12.87
2017-09-28T07:38:06.744Z,12.76
2017-09-28T07:39:06.705Z,12.90
2017-09-28T07:40:06.671Z,12.78
2017-09-28T07:41:06.699Z,12.91
2017-09-28T07:42:27.667Z,12.85
2017-09-28T07:43:06.650Z,12.93
2017-09-28T07:44:06.632Z,12.90
2017-09-28T07:45:06.599Z,12.90
2017-09-28T07:46:06.573Z,12.87
2017-09-28T07:47:06.586Z,12.97
2017-09-28T07:48:27.564Z,13.01
2017-09-28T07:49:06.533Z,13.05
2017-09-28T07:50:06.523Z,13.13
2017-09-28T07:51:06.504Z,13.16
2017-09-28T07:52:06.481Z,13.13
2017-09-28T07:53:06.465Z,13.20
2017-09-28T07:54:27.473Z,13.15
2017-09-28T07:55:06.434Z,13.16
2017-09-28T07:56:06.405Z,13.23
2017-09-28T07:57:06.413Z,13.22
2017-09-28T07:58:06.348Z,13.28
2017-09-28T07:59:06.342Z,13.33
2017-09-28T08:00:27.311Z,13.39
2017-09-28T08:01:06.289Z,13.44
2017-09-28T08:02:06.299Z,13.38
2017-09-28T08:03:06.283Z,13.39
2017-09-28T08:04:06.285Z,13.46
2017-09-28T08:05:06.253Z,13.42
2017-09-28T08:06:27.268Z,13.41
2017-09-28T08:07:06.220Z,13.47
2017-09-28T08:08:06.216Z,13.49
2017-09-28T08:09:06.154Z,13.50
2017-09-28T08:10:06.141Z,13.62
2017-09-28T08:11:06.124Z,13.63
2017-09-28T08:12:27.122Z,13.72
2017-09-28T08:13:06.119Z,13.79
2017-09-28T08:14:06.093Z,13.85
2017-09-28T08:15:06.058Z,13.93
2017-09-28T08:16:06.072Z,13.97
2017-09-28T08:17:06.010Z,14.10
2017-09-28T08:18:27.016Z,14.14
2017-09-28T08:19:06.091Z,14.18
2017-09-28T08:20:05.990Z,14.07
2017-09-28T08:21:05.989Z,14.22
2017-09-28T08:22:05.934Z,14.23
2017-09-28T08:23:05.902Z,14.30
2017-09-28T08:24:26.917Z,14.32
2017-09-28T08:25:05.892Z,14.35
2017-09-28T08:26:05.913Z,14.33
2017-09-28T08:27:05.900Z,14.44
2017-09-28T08:28:05.837Z,14.45
2017-09-28T08:29:05.879Z,14.48
2017-09-28T08:30:26.790Z,14.47
2017-09-28T08:31:05.778Z,14.58
2017-09-28T08:32:05.754Z,14.54
2017-09-28T08:33:05.776Z,14.60
2017-09-28T08:34:05.720Z,14.63
2017-09-28T08:35:05.734Z,14.65
2017-09-28T08:36:26.718Z,14.79
2017-09-28T08:37:05.677Z,14.78
2017-09-28T08:38:05.655Z,14.94
2017-09-28T08:39:05.636Z,14.84
2017-09-28T08:40:05.653Z,14.88
2017-09-28T08:41:05.636Z,15.02
2017-09-28T08:42:26.603Z,15.07
2017-09-28T08:43:05.573Z,15.04
2017-09-28T08:44:05.586Z,15.00
2017-09-28T08:45:05.546Z,15.00
2017-09-28T08:46:05.520Z,14.97
2017-09-28T08:47:05.564Z,15.15
2017-09-28T08:48:26.502Z,15.22
2017-09-28T08:49:05.503Z,15.36
2017-09-28T08:50:05.447Z,15.43
2017-09-28T08:51:05.441Z,15.52
2017-09-28T08:52:05.410Z,15.61
2017-09-28T08:53:05.423Z,15.70
2017-09-28T08:54:26.388Z,15.73
2017-09-28T08:55:05.394Z,15.65
2017-09-28T08:56:05.364Z,15.80
2017-09-28T08:57:05.321Z,15.70
2017-09-28T08:58:05.337Z,15.72
2017-09-28T08:59:05.294Z,15.86
2017-09-28T09:00:26.290Z,15.95
2017-09-28T09:01:05.276Z,16.13
2017-09-28T09:02:05.275Z,16.16
2017-09-28T09:03:05.244Z,16.32
2017-09-28T09:04:05.244Z,16.49
2017-09-28T09:05:05.202Z,16.57
2017-09-28T09:06:26.206Z,16.79
2017-09-28T09:07:05.178Z,16.94
2017-09-28T09:08:05.138Z,17.22
2017-09-28T09:09:05.128Z,17.30
2017-09-28T09:10:05.108Z,17.46
2017-09-28T09:11:05.114Z,17.72
2017-09-28T09:12:26.113Z,17.86
2017-09-28T09:13:05.067Z,17.97
2017-09-28T09:14:05.059Z,18.15
2017-09-28T09:15:05.043Z,18.33
2017-09-28T09:16:05.053Z,18.55
2017-09-28T09:17:05.001Z,18.66
2017-09-28T09:18:26.026Z,18.83
2017-09-28T09:19:04.965Z,18.89
2017-09-28T09:20:04.971Z,18.88
2017-09-28T09:21:04.921Z,18.90
2017-09-28T09:22:04.910Z,18.92
2017-09-28T09:23:04.936Z,18.84
2017-09-28T09:24:26.160Z,18.86
2017-09-28T09:25:04.963Z,18.88
2017-09-28T09:26:04.869Z,18.89
2017-09-28T09:27:04.867Z,19.08
2017-09-28T09:28:04.833Z,19.02
2017-09-28T09:29:04.814Z,19.11
2017-09-28T09:30:25.805Z,19.12
2017-09-28T09:31:04.790Z,19.16
2017-09-28T09:32:04.796Z,19.30
2017-09-28T09:33:04.758Z,19.31
2017-09-28T09:34:04.850Z,19.47
2017-09-28T09:35:04.732Z,19.37
2017-09-28T09:36:25.800Z,19.39
2017-09-28T09:37:04.713Z,19.37
2017-09-28T09:38:04.703Z,19.40
2017-09-28T09:39:04.709Z,19.47
2017-09-28T09:40:04.682Z,19.64
2017-09-28T09:41:04.663Z,19.76
2017-09-28T09:42:25.736Z,19.84
2017-09-28T09:43:04.733Z,20.04
2017-09-28T09:44:04.639Z,20.25
2017-09-28T09:45:04.632Z,20.32
2017-09-28T09:46:04.585Z,20.36
2017-09-28T09:47:04.589Z,20.26
2017-09-28T09:48:25.575Z,20.41
2017-09-28T09:49:04.546Z,20.47
2017-09-28T09:50:04.536Z,20.72
2017-09-28T09:51:04.570Z,20.87
2017-09-28T09:52:04.715Z,20.92
2017-09-28T09:53:04.500Z,20.85
2017-09-28T09:54:25.692Z,20.84
2017-09-28T09:55:04.492Z,20.80
2017-09-28T09:56:04.547Z,20.80
2017-09-28T09:57:04.455Z,20.84
2017-09-28T09:58:04.534Z,20.63
2017-09-28T09:59:04.456Z,20.43
2017-09-28T10:00:25.451Z,20.13
2017-09-28T10:01:04.541Z,19.81
2017-09-28T10:02:04.479Z,19.48
2017-09-28T10:03:04.442Z,19.45
2017-09-28T10:04:04.375Z,19.27
2017-09-28T10:05:04.365Z,19.09
2017-09-28T10:06:25.352Z,19.11
2017-09-28T10:07:04.334Z,19.09
2017-09-28T10:08:04.334Z,18.93
2017-09-28T10:09:04.306Z,18.84
2017-09-28T10:10:04.300Z,18.73
2017-09-28T10:11:04.264Z,18.53
2017-09-28T10:12:25.273Z,18.58
2017-09-28T10:13:04.257Z,18.45
2017-09-28T10:14:04.235Z,18.33
2017-09-28T10:15:07.125Z,18.16
2017-09-28T10:16:04.264Z,18.16
2017-09-28T10:17:04.188Z,17.94
2017-09-28T10:18:25.265Z,17.83
2017-09-28T10:19:04.166Z,17.80
2017-09-28T10:20:04.178Z,17.63
2017-09-28T10:21:04.128Z,17.44
2017-09-28T10:22:04.155Z,17.36
2017-09-28T10:23:04.099Z,17.12
2017-09-28T10:24:25.150Z,17.16
2017-09-28T10:25:04.088Z,17.08
2017-09-28T10:26:04.088Z,17.05
2017-09-28T10:27:04.045Z,17.06
2017-09-28T10:28:04.064Z,16.96
2017-09-28T10:29:04.012Z,16.93
2017-09-28T10:30:25.154Z,16.97
2017-09-28T10:31:04.013Z,16.97
2017-09-28T10:32:03.988Z,16.93
2017-09-28T10:33:03.977Z,17.02
2017-09-28T10:34:03.990Z,16.96
2017-09-28T10:35:04.059Z,16.94
2017-09-28T10:36:25.005Z,16.96
2017-09-28T10:37:03.910Z,16.90
2017-09-28T10:38:03.915Z,16.76
2017-09-28T10:39:03.902Z,16.78
2017-09-28T10:40:03.877Z,16.81
2017-09-28T10:41:03.840Z,16.76
2017-09-28T10:42:24.852Z,16.89
2017-09-28T10:43:03.819Z,16.87
2017-09-28T10:44:03.810Z,16.84
2017-09-28T10:45:03.807Z,16.90
2017-09-28T10:46:03.852Z,16.94
2017-09-28T10:47:03.756Z,17.01
2017-09-28T10:48:24.825Z,17.09
2017-09-28T10:49:03.796Z,17.15
2017-09-28T10:50:03.772Z,17.24
2017-09-28T10:51:03.694Z,17.29
2017-09-28T10:52:03.685Z,17.36
2017-09-28T10:53:03.734Z,17.44
2017-09-28T10:54:24.671Z,17.42
2017-09-28T10:55:03.680Z,17.52
2017-09-28T10:56:03.629Z,17.65
2017-09-28T10:57:03.648Z,17.78
2017-09-28T10:58:03.637Z,17.92
2017-09-28T10:59:03.601Z,17.90
2017-09-28T11:00:24.559Z,17.97
2017-09-28T11:01:03.550Z,18.18
2017-09-28T11:02:03.532Z,18.28
2017-09-28T11:03:03.521Z,18.40
2017-09-28T11:04:03.495Z,18.55
2017-09-28T11:05:03.499Z,18.66
2017-09-28T11:06:24.515Z,18.93
2017-09-28T11:07:03.462Z,19.11
2017-09-28T11:08:03.491Z,19.33
2017-09-28T11:09:03.418Z,19.48
2017-09-28T11:10:03.427Z,19.67
2017-09-28T11:11:03.404Z,19.82
2017-09-28T11:12:24.389Z,20.00
2017-09-28T11:13:03.367Z,20.10
2017-09-28T11:14:03.383Z,20.43
2017-09-28T11:15:03.345Z,20.62
2017-09-28T11:16:03.334Z,20.65
2017-09-28T11:17:03.314Z,20.97
2017-09-28T11:18:24.338Z,21.17
2017-09-28T11:19:03.280Z,21.30
2017-09-28T11:20:03.278Z,21.30
2017-09-28T11:21:03.252Z,21.45
2017-09-28T11:22:03.287Z,21.79
2017-09-28T11:23:03.243Z,22.10
2017-09-28T11:24:24.218Z,22.20
2017-09-28T11:25:03.249Z,22.38
2017-09-28T11:26:03.199Z,22.62
2017-09-28T11:27:03.195Z,22.84
2017-09-28T11:28:03.184Z,23.12
2017-09-28T11:29:03.161Z,23.31
2017-09-28T11:30:24.149Z,23.05
2017-09-28T11:31:03.143Z,23.09
2017-09-28T11:32:03.137Z,23.12
2017-09-28T11:33:03.129Z,23.06
2017-09-28T11:34:03.101Z,23.13
2017-09-28T11:35:03.091Z,22.94
2017-09-28T11:36:24.093Z,22.99
2017-09-28T11:37:03.090Z,22.85
2017-09-28T11:38:03.076Z,22.72
2017-09-28T11:39:03.059Z,22.66
2017-09-28T11:40:03.033Z,22.62
2017-09-28T11:41:03.047Z,22.63
2017-09-28T11:42:24.039Z,22.51
2017-09-28T11:43:03.016Z,22.35
2017-09-28T11:44:03.002Z,22.17
2017-09-28T11:45:02.983Z,22.14
2017-09-28T11:46:02.994Z,22.13
2017-09-28T11:47:02.977Z,22.20
2017-09-28T11:48:23.969Z,22.51
2017-09-28T11:49:02.947Z,22.57
2017-09-28T11:50:02.986Z,22.76
2017-09-28T11:51:02.926Z,22.93
2017-09-28T11:52:02.910Z,22.87
2017-09-28T11:53:02.896Z,22.93
2017-09-28T11:54:23.961Z,22.87
2017-09-28T11:55:02.881Z,22.91
2017-09-28T11:56:02.865Z,22.78
2017-09-28T11:57:02.951Z,22.78
2017-09-28T11:58:03.840Z,22.73
2017-09-28T11:59:02.844Z,22.53
2017-09-28T12:00:23.854Z,22.44
2017-09-28T12:01:02.822Z,22.38
2017-09-28T12:02:02.813Z,22.17
2017-09-28T12:03:02.792Z,22.02
2017-09-28T12:04:02.821Z,21.88
2017-09-28T12:05:02.764Z,21.67
2017-09-28T12:06:23.764Z,21.55
2017-09-28T12:07:02.752Z,21.45
2017-09-28T12:08:02.733Z,21.43
2017-09-28T12:09:02.719Z,21.40
2017-09-28T12:10:02.714Z,21.50
2017-09-28T12:11:02.738Z,21.67
2017-09-28T12:12:23.756Z,21.76
2017-09-28T12:13:02.681Z,21.82
2017-09-28T12:14:02.676Z,21.98
2017-09-28T12:15:02.657Z,22.18
2017-09-28T12:16:02.694Z,22.50
2017-09-28T12:17:02.632Z,22.53
2017-09-28T12:18:23.627Z,23.02
2017-09-28T12:19:02.620Z,23.55
2017-09-28T12:20:02.601Z,24.10
2017-09-28T12:21:02.605Z,24.96
2017-09-28T12:22:02.609Z,25.70
2017-09-28T12:23:02.617Z,26.29
2017-09-28T12:24:23.567Z,26.96
2017-09-28T12:25:02.553Z,27.93
2017-09-28T12:26:02.553Z,28.48
2017-09-28T12:27:02.555Z,28.70
2017-09-28T12:28:02.519Z,29.10
2017-09-28T12:29:02.515Z,29.56
2017-09-28T12:30:23.519Z,29.82
2017-09-28T12:31:02.506Z,30.06
2017-09-28T12:32:02.490Z,30.23
2017-09-28T12:33:02.527Z,30.44
2017-09-28T12:34:02.473Z,31.22
2017-09-28T12:35:02.497Z,31.80
2017-09-28T12:36:23.537Z,32.31
2017-09-28T12:37:02.476Z,32.78
2017-09-28T12:38:02.469Z,33.40
2017-09-28T12:39:02.455Z,33.94
2017-09-28T12:40:02.445Z,34.40
2017-09-28T12:41:02.462Z,34.88
2017-09-28T12:42:23.501Z,35.17
2017-09-28T12:43:02.433Z,35.51
2017-09-28T12:44:02.425Z,35.92
2017-09-28T12:45:02.419Z,35.78
2017-09-28T12:46:02.477Z,35.24
2017-09-28T12:47:02.414Z,34.40
2017-09-28T12:48:23.428Z,33.55
2017-09-28T12:49:02.418Z,32.68
2017-09-28T12:50:02.406Z,31.96
2017-09-28T12:51:02.408Z,31.39
2017-09-28T12:52:02.405Z,30.88